createdAt,value
2018-12-17T00:00:44.166Z,1003.3
2018-12-17T00:01:46.443Z,1003.3
2018-12-17T00:02:48.461Z,1003.3
2018-12-17T00:03:49.857Z,1003.3
2018-12-17T00:04:51.996Z,1003.3
2018-12-17T00:05:53.804Z,1003.3
2018-12-17T00:06:55.231Z,1003.3
2018-12-17T00:07:56.653Z,1003.3
2018-12-17T00:08:58.052Z,1003.3
2018-12-17T00:09:59.445Z,1003.3
2018-12-17T00:11:00.863Z,1003.3
2018-12-17T00:12:02.268Z,1003.3
2018-12-17T00:13:03.658Z,1003.3
2018-12-17T00:14:05.068Z,1003.2
2018-12-17T00:15:06.426Z,1003.2
2018-12-17T00:16:07.813Z,1003.2
2018-12-17T00:17:09.212Z,1003.2
2018-12-17T00:18:10.588Z,1003.2
2018-12-17T00:19:11.997Z,1003.2
2018-12-17T00:20:15.183Z,1003.2
2018-12-17T00:21:17.448Z,1003.2
2018-12-17T00:22:18.838Z,1003.2
2018-12-17T00:23:21.167Z,1003.2
2018-12-17T00:24:22.548Z,1003.2
2018-12-17T00:25:23.911Z,1003.2
2018-12-17T00:26:26.741Z,1003.2
2018-12-17T00:27:28.127Z,1003.2
2018-12-17T00:28:29.572Z,1003.2
2018-12-17T00:29:30.974Z,1003.2
2018-12-17T00:30:32.881Z,1003.2
2018-12-17T00:31:35.137Z,1003.2
2018-12-17T00:32:36.593Z,1003.2
2018-12-17T00:33:38.044Z,1003.2
2018-12-17T00:34:39.421Z,1003.2
2018-12-17T00:35:40.819Z,1003.1
2018-12-17T00:36:43.027Z,1003.1
2018-12-17T00:37:44.517Z,1003.1
2018-12-17T00:38:45.924Z,1003.2
2018-12-17T00:39:49.199Z,1003.1
2018-12-17T00:40:50.618Z,1003.1
2018-12-17T00:41:51.998Z,1003.1
2018-12-17T00:42:54.169Z,1003.1
2018-12-17T00:43:55.597Z,1003.1
2018-12-17T00:44:56.992Z,1003.1
2018-12-17T00:45:58.367Z,1003.1
2018-12-17T00:46:59.771Z,1003.1
2018-12-17T00:48:02.149Z,1003.2
2018-12-17T00:49:05.297Z,1003.2
2018-12-17T00:50:06.659Z,1003.2
2018-12-17T00:51:08.044Z,1003.2
2018-12-17T00:52:09.432Z,1003.2
2018-12-17T00:53:10.832Z,1003.2
2018-12-17T00:54:12.208Z,1003.3
2018-12-17T00:55:13.581Z,1003.2
2018-12-17T00:56:14.993Z,1003.3
2018-12-17T00:57:16.384Z,1003.3
2018-12-17T00:58:17.864Z,1003.4
2018-12-17T00:59:21.970Z,1003.3
2018-12-17T01:00:23.368Z,1003.3
2018-12-17T01:01:24.834Z,1003.4
2018-12-17T01:02:26.263Z,1003.3
2018-12-17T01:03:28.229Z,1003.4
2018-12-17T01:04:30.372Z,1003.4
2018-12-17T01:05:31.765Z,1003.3
2018-12-17T01:06:33.149Z,1003.3
2018-12-17T01:07:35.478Z,1003.3
2018-12-17T01:08:36.978Z,1003.3
2018-12-17T01:09:39.138Z,1003.3
2018-12-17T01:10:40.560Z,1003.3
2018-12-17T01:11:42.053Z,1003.3
2018-12-17T01:12:43.428Z,1003.4
2018-12-17T01:13:45.783Z,1003.4
2018-12-17T01:14:47.277Z,1003.4
2018-12-17T01:15:49.624Z,1003.4
2018-12-17T01:16:54.383Z,1003.4
2018-12-17T01:17:55.858Z,1003.4
2018-12-17T01:18:57.368Z,1003.5
2018-12-17T01:19:58.739Z,1003.4
2018-12-17T01:21:00.190Z,1003.5
2018-12-17T01:22:01.589Z,1003.5
2018-12-17T01:23:02.978Z,1003.5
2018-12-17T01:24:04.374Z,1003.5
2018-12-17T01:25:06.469Z,1003.5
2018-12-17T01:26:08.721Z,1003.5
2018-12-17T01:27:10.093Z,1003.5
2018-12-17T01:28:12.000Z,1003.6
2018-12-17T01:29:13.402Z,1003.6
2018-12-17T01:30:14.904Z,1003.6
2018-12-17T01:31:16.396Z,1003.6
2018-12-17T01:32:17.805Z,1003.6
2018-12-17T01:33:19.220Z,1003.6
2018-12-17T01:34:22.149Z,1003.6
2018-12-17T01:35:25.488Z,1003.6
2018-12-17T01:36:26.981Z,1003.7
2018-12-17T01:37:28.554Z,1003.6
2018-12-17T01:38:30.028Z,1003.7
2018-12-17T01:39:31.690Z,1003.7
2018-12-17T01:40:33.297Z,1003.6
2018-12-17T01:41:34.959Z,1003.7
2018-12-17T01:42:37.845Z,1003.7
2018-12-17T01:43:39.220Z,1003.7
2018-12-17T01:44:40.644Z,1003.7
2018-12-17T01:45:42.004Z,1003.8
2018-12-17T01:46:43.394Z,1003.8
2018-12-17T01:47:44.768Z,1003.7
2018-12-17T01:48:46.178Z,1003.7
2018-12-17T01:49:47.624Z,1003.7
2018-12-17T01:50:49.052Z,1003.7
2018-12-17T01:51:50.519Z,1003.7
2018-12-17T01:52:52.664Z,1003.7
2018-12-17T01:53:54.160Z,1003.7
2018-12-17T01:54:55.688Z,1003.7
2018-12-17T01:56:01.149Z,1003.7
2018-12-17T01:57:02.562Z,1003.7
2018-12-17T01:58:05.515Z,1003.7
2018-12-17T01:59:06.927Z,1003.8
2018-12-17T02:00:08.329Z,1003.7
2018-12-17T02:01:09.821Z,1003.7
2018-12-17T02:02:12.158Z,1003.7
2018-12-17T02:03:13.542Z,1003.7
2018-12-17T02:04:14.933Z,1003.7
2018-12-17T02:05:16.397Z,1003.7
2018-12-17T02:06:17.763Z,1003.7
2018-12-17T02:07:19.249Z,1003.7
2018-12-17T02:08:20.703Z,1003.7
2018-12-17T02:09:23.083Z,1003.7
2018-12-17T02:10:24.718Z,1003.7
2018-12-17T02:11:27.038Z,1003.7
2018-12-17T02:12:30.815Z,1003.7
2018-12-17T02:13:34.465Z,1003.6
2018-12-17T02:14:35.909Z,1003.7
2018-12-17T02:15:38.193Z,1003.7
2018-12-17T02:16:40.623Z,1003.7
2018-12-17T02:17:42.044Z,1003.7
2018-12-17T02:18:47.894Z,1003.7
2018-12-17T02:19:49.239Z,1003.7
2018-12-17T02:20:54.200Z,1003.7
2018-12-17T02:21:55.630Z,1003.7
2018-12-17T02:22:57.813Z,1003.8
2018-12-17T02:23:59.783Z,1003.8
2018-12-17T02:25:01.224Z,1003.8
2018-12-17T02:26:02.603Z,1003.8
2018-12-17T02:27:03.998Z,1003.8
2018-12-17T02:28:06.267Z,1003.8
2018-12-17T02:29:07.790Z,1003.8
2018-12-17T02:30:09.361Z,1003.9
2018-12-17T02:31:11.006Z,1003.9
2018-12-17T02:32:12.480Z,1003.9
2018-12-17T02:33:13.950Z,1003.9
2018-12-17T02:34:15.457Z,1004.0
2018-12-17T02:35:16.965Z,1004.0
2018-12-17T02:36:18.480Z,1004.0
2018-12-17T02:37:19.886Z,1004.0
2018-12-17T02:38:21.325Z,1004.0
2018-12-17T02:39:22.785Z,1004.0
2018-12-17T02:40:24.794Z,1004.0
2018-12-17T02:41:28.158Z,1004.0
2018-12-17T02:42:29.600Z,1004.0
2018-12-17T02:43:31.156Z,1004.1
2018-12-17T02:44:33.254Z,1004.0
2018-12-17T02:45:34.624Z,1004.1
2018-12-17T02:46:36.065Z,1004.0
2018-12-17T02:47:37.467Z,1004.0
2018-12-17T02:48:39.600Z,1004.1
2018-12-17T02:49:40.285Z,1004.1
2018-12-17T02:50:43.258Z,1004.1
2018-12-17T02:51:44.621Z,1004.2
2018-12-17T02:52:46.059Z,1004.1
2018-12-17T02:53:47.551Z,1004.2
2018-12-17T02:54:48.980Z,1004.2
2018-12-17T02:55:50.381Z,1004.2
2018-12-17T02:56:54.335Z,1004.2
2018-12-17T02:57:55.779Z,1004.2
2018-12-17T02:58:58.744Z,1004.2
2018-12-17T03:00:00.148Z,1004.2
2018-12-17T03:01:01.544Z,1004.2
2018-12-17T03:02:02.941Z,1004.2
2018-12-17T03:03:04.458Z,1004.2
2018-12-17T03:04:05.949Z,1004.3
2018-12-17T03:05:08.299Z,1004.3
2018-12-17T03:06:09.808Z,1004.3
2018-12-17T03:07:12.100Z,1004.3
2018-12-17T03:08:13.715Z,1004.3
2018-12-17T03:09:20.189Z,1004.2
2018-12-17T03:10:24.450Z,1004.3
2018-12-17T03:11:25.881Z,1004.3
2018-12-17T03:12:27.859Z,1004.4
2018-12-17T03:13:30.099Z,1004.4
2018-12-17T03:14:31.529Z,1004.5
2018-12-17T03:15:32.990Z,1004.5
2018-12-17T03:16:34.432Z,1004.5
2018-12-17T03:17:35.919Z,1004.5
2018-12-17T03:18:37.416Z,1004.6
2018-12-17T03:19:38.780Z,1004.5
2018-12-17T03:20:40.252Z,1004.6
2018-12-17T03:21:41.750Z,1004.5
2018-12-17T03:22:43.160Z,1004.5
2018-12-17T03:23:44.599Z,1004.6
2018-12-17T03:24:46.601Z,1004.6
2018-12-17T03:25:48.028Z,1004.6
2018-12-17T03:26:49.403Z,1004.6
2018-12-17T03:27:50.915Z,1004.6
2018-12-17T03:28:52.389Z,1004.7
2018-12-17T03:29:55.273Z,1004.7
2018-12-17T03:30:56.696Z,1004.7
2018-12-17T03:31:58.245Z,1004.7
2018-12-17T03:32:59.820Z,1004.7
2018-12-17T03:34:01.279Z,1004.7
2018-12-17T03:35:02.729Z,1004.7
2018-12-17T03:36:04.229Z,1004.7
2018-12-17T03:37:05.725Z,1004.7
2018-12-17T03:38:07.131Z,1004.7
2018-12-17T03:39:08.531Z,1004.7
2018-12-17T03:40:13.432Z,1004.7
2018-12-17T03:41:14.886Z,1004.7
2018-12-17T03:42:16.279Z,1004.7
2018-12-17T03:43:21.823Z,1004.7
2018-12-17T03:44:26.481Z,1004.8
2018-12-17T03:45:27.976Z,1004.8
2018-12-17T03:46:29.476Z,1004.8
2018-12-17T03:47:31.147Z,1004.8
2018-12-17T03:48:32.676Z,1004.8
2018-12-17T03:49:34.230Z,1004.8
2018-12-17T03:50:38.212Z,1004.8
2018-12-17T03:51:39.762Z,1004.8
2018-12-17T03:52:42.180Z,1004.9
2018-12-17T03:53:45.692Z,1004.9
2018-12-17T03:54:47.271Z,1004.9
2018-12-17T03:55:48.716Z,1005.0
2018-12-17T03:56:50.271Z,1005.0
2018-12-17T03:57:51.811Z,1005.0
2018-12-17T03:58:59.171Z,1005.0
2018-12-17T03:59:55.241Z,1005.1
2018-12-17T04:00:56.658Z,1005.0
2018-12-17T04:02:00.615Z,1005.1
2018-12-17T04:03:01.051Z,1005.0
2018-12-17T04:04:03.777Z,1005.1
2018-12-17T04:05:05.175Z,1005.1
2018-12-17T04:06:07.466Z,1005.1
2018-12-17T04:07:09.505Z,1005.1
2018-12-17T04:08:11.687Z,1005.1
2018-12-17T04:09:13.037Z,1005.1
2018-12-17T04:10:15.225Z,1005.1
2018-12-17T04:11:16.901Z,1005.1
2018-12-17T04:12:19.916Z,1005.1
2018-12-17T04:13:22.010Z,1005.1
2018-12-17T04:14:23.409Z,1005.2
2018-12-17T04:15:25.209Z,1005.2
2018-12-17T04:16:28.180Z,1005.2
2018-12-17T04:17:32.190Z,1005.2
2018-12-17T04:18:34.236Z,1005.2
2018-12-17T04:19:35.628Z,1005.2
2018-12-17T04:20:37.759Z,1005.2
2018-12-17T04:21:43.616Z,1005.2
2018-12-17T04:22:44.344Z,1005.2
2018-12-17T04:23:45.861Z,1005.2
2018-12-17T04:24:47.440Z,1005.2
2018-12-17T04:25:49.382Z,1005.2
2018-12-17T04:26:50.771Z,1005.2
2018-12-17T04:27:52.247Z,1005.2
2018-12-17T04:28:53.779Z,1005.2
2018-12-17T04:29:56.321Z,1005.2
2018-12-17T04:30:58.021Z,1005.3
2018-12-17T04:32:04.106Z,1005.3
2018-12-17T04:33:04.511Z,1005.3
2018-12-17T04:34:06.613Z,1005.3
2018-12-17T04:35:08.084Z,1005.3
2018-12-17T04:36:09.593Z,1005.3
2018-12-17T04:37:11.195Z,1005.4
2018-12-17T04:38:13.543Z,1005.4
2018-12-17T04:39:15.685Z,1005.4
2018-12-17T04:40:18.081Z,1005.4
2018-12-17T04:41:20.937Z,1005.4
2018-12-17T04:42:23.016Z,1005.4
2018-12-17T04:43:25.892Z,1005.4
2018-12-17T04:44:27.354Z,1005.4
2018-12-17T04:45:30.363Z,1005.4
2018-12-17T04:46:31.786Z,1005.5
2018-12-17T04:47:33.310Z,1005.5
2018-12-17T04:48:35.722Z,1005.5
2018-12-17T04:49:37.195Z,1005.5
2018-12-17T04:50:38.685Z,1005.5
2018-12-17T04:51:40.166Z,1005.6
2018-12-17T04:52:41.567Z,1005.6
2018-12-17T04:53:43.685Z,1005.6
2018-12-17T04:54:46.476Z,1005.6
2018-12-17T04:55:49.310Z,1005.6
2018-12-17T04:56:50.754Z,1005.6
2018-12-17T04:57:52.328Z,1005.6
2018-12-17T04:58:54.728Z,1005.6
2018-12-17T04:59:57.146Z,1005.6
2018-12-17T05:00:58.632Z,1005.5
2018-12-17T05:02:00.086Z,1005.6
2018-12-17T05:03:02.537Z,1005.6
2018-12-17T05:04:04.851Z,1005.6
2018-12-17T05:05:06.326Z,1005.6
2018-12-17T05:06:08.876Z,1005.6
2018-12-17T05:07:10.336Z,1005.6
2018-12-17T05:08:12.711Z,1005.6
2018-12-17T05:09:16.481Z,1005.6
2018-12-17T05:10:18.912Z,1005.7
2018-12-17T05:11:20.307Z,1005.7
2018-12-17T05:12:21.702Z,1005.7
2018-12-17T05:13:23.111Z,1005.7
2018-12-17T05:14:25.089Z,1005.7
2018-12-17T05:15:26.645Z,1005.7
2018-12-17T05:16:29.932Z,1005.7
2018-12-17T05:17:31.474Z,1005.7
2018-12-17T05:18:33.834Z,1005.7
2018-12-17T05:19:35.253Z,1005.7
2018-12-17T05:20:36.776Z,1005.7
2018-12-17T05:21:38.235Z,1005.7
2018-12-17T05:22:39.679Z,1005.7
2018-12-17T05:23:41.130Z,1005.7
2018-12-17T05:24:43.277Z,1005.7
2018-12-17T05:25:44.651Z,1005.7
2018-12-17T05:26:46.137Z,1005.7
2018-12-17T05:27:47.619Z,1005.7
2018-12-17T05:28:49.853Z,1005.7
2018-12-17T05:29:51.396Z,1005.7
2018-12-17T05:30:52.858Z,1005.7
2018-12-17T05:31:54.326Z,1005.8
2018-12-17T05:32:55.937Z,1005.8
2018-12-17T05:33:57.401Z,1005.9
2018-12-17T05:34:58.836Z,1005.8
2018-12-17T05:36:01.182Z,1005.9
2018-12-17T05:37:02.716Z,1005.9
2018-12-17T05:38:04.210Z,1005.9
2018-12-17T05:39:05.581Z,1006.0
2018-12-17T05:40:07.024Z,1005.9
2018-12-17T05:41:08.415Z,1006.0
2018-12-17T05:42:09.919Z,1006.0
2018-12-17T05:43:11.385Z,1006.0
2018-12-17T05:44:12.972Z,1006.0
2018-12-17T05:45:15.686Z,1006.0
2018-12-17T05:46:17.056Z,1006.0
2018-12-17T05:47:18.441Z,1006.0
2018-12-17T05:48:19.818Z,1006.1
2018-12-17T05:49:21.255Z,1006.1
2018-12-17T05:50:22.693Z,1006.1
2018-12-17T05:51:24.039Z,1006.2
2018-12-17T05:52:26.383Z,1006.2
2018-12-17T05:53:28.399Z,1006.1
2018-12-17T05:54:30.522Z,1006.1
2018-12-17T05:55:32.483Z,1006.1
2018-12-17T05:56:33.928Z,1006.1
2018-12-17T05:57:37.133Z,1006.1
2018-12-17T05:58:38.548Z,1006.1
2018-12-17T05:59:40.037Z,1006.1
2018-12-17T06:00:41.593Z,1006.1
2018-12-17T06:01:43.140Z,1006.2
2018-12-17T06:02:44.581Z,1006.2
2018-12-17T06:03:46.955Z,1006.2
2018-12-17T06:04:48.358Z,1006.2
2018-12-17T06:05:49.757Z,1006.2
2018-12-17T06:06:51.141Z,1006.3
2018-12-17T06:07:52.543Z,1006.3
2018-12-17T06:08:53.987Z,1006.3
2018-12-17T06:09:55.388Z,1006.3
2018-12-17T06:10:57.710Z,1006.3
2018-12-17T06:11:59.722Z,1006.3
2018-12-17T06:13:01.122Z,1006.3
2018-12-17T06:14:03.424Z,1006.4
2018-12-17T06:15:04.824Z,1006.4
2018-12-17T06:16:08.658Z,1006.4
2018-12-17T06:17:10.034Z,1006.4
2018-12-17T06:18:11.744Z,1006.4
2018-12-17T06:19:13.159Z,1006.4
2018-12-17T06:20:14.572Z,1006.4
2018-12-17T06:21:15.981Z,1006.5
2018-12-17T06:22:17.313Z,1006.5
2018-12-17T06:23:18.726Z,1006.5
2018-12-17T06:24:20.147Z,1006.5
2018-12-17T06:25:21.552Z,1006.5
2018-12-17T06:26:24.867Z,1006.5
2018-12-17T06:27:26.363Z,1006.5
2018-12-17T06:28:27.750Z,1006.6
2018-12-17T06:29:35.392Z,1006.6
2018-12-17T06:30:30.701Z,1006.6
2018-12-17T06:31:32.212Z,1006.6
2018-12-17T06:32:33.633Z,1006.6
2018-12-17T06:33:35.083Z,1006.7
2018-12-17T06:34:38.298Z,1006.7
2018-12-17T06:35:40.787Z,1006.7
2018-12-17T06:36:42.217Z,1006.8
2018-12-17T06:37:44.296Z,1006.8
2018-12-17T06:38:45.703Z,1006.8
2018-12-17T06:39:47.134Z,1006.8
2018-12-17T06:40:50.197Z,1006.9
2018-12-17T06:41:51.598Z,1006.9
2018-12-17T06:42:53.028Z,1006.9
2018-12-17T06:43:54.423Z,1006.9
2018-12-17T06:44:56.771Z,1006.9
2018-12-17T06:45:58.211Z,1006.9
2018-12-17T06:46:59.592Z,1006.9
2018-12-17T06:48:00.972Z,1006.9
2018-12-17T06:49:03.281Z,1006.9
2018-12-17T06:50:04.662Z,1006.9
2018-12-17T06:51:06.113Z,1006.9
2018-12-17T06:52:07.474Z,1007.0
2018-12-17T06:53:11.249Z,1007.0
2018-12-17T06:54:12.679Z,1007.0
2018-12-17T06:55:14.082Z,1007.0
2018-12-17T06:56:15.477Z,1007.0
2018-12-17T06:57:18.661Z,1007.0
2018-12-17T06:58:20.934Z,1007.1
2018-12-17T06:59:24.037Z,1007.1
2018-12-17T07:00:25.532Z,1007.0
2018-12-17T07:01:28.115Z,1007.1
2018-12-17T07:02:29.210Z,1007.0
2018-12-17T07:03:31.412Z,1007.1
2018-12-17T07:04:33.355Z,1007.1
2018-12-17T07:05:34.768Z,1007.1
2018-12-17T07:06:36.178Z,1007.1
2018-12-17T07:07:39.641Z,1007.1
2018-12-17T07:08:40.341Z,1007.2
2018-12-17T07:09:41.712Z,1007.2
2018-12-17T07:10:43.099Z,1007.2
2018-12-17T07:11:44.469Z,1007.2
2018-12-17T07:12:45.832Z,1007.2
2018-12-17T07:13:47.799Z,1007.2
2018-12-17T07:14:49.189Z,1007.1
2018-12-17T07:15:50.559Z,1007.2
2018-12-17T07:16:52.008Z,1007.2
2018-12-17T07:17:54.213Z,1007.2
2018-12-17T07:18:56.491Z,1007.3
2018-12-17T07:19:57.879Z,1007.3
2018-12-17T07:20:59.279Z,1007.3
2018-12-17T07:22:01.583Z,1007.3
2018-12-17T07:23:03.004Z,1007.3
2018-12-17T07:24:04.383Z,1007.4
2018-12-17T07:25:06.388Z,1007.3
2018-12-17T07:26:07.783Z,1007.3
2018-12-17T07:27:09.885Z,1007.3
2018-12-17T07:28:12.979Z,1007.4
2018-12-17T07:29:14.393Z,1007.4
2018-12-17T07:30:15.877Z,1007.4
2018-12-17T07:31:18.081Z,1007.4
2018-12-17T07:32:19.475Z,1007.4
2018-12-17T07:33:20.895Z,1007.5
2018-12-17T07:34:22.373Z,1007.5
2018-12-17T07:35:24.664Z,1007.5
2018-12-17T07:36:25.158Z,1007.6
2018-12-17T07:37:27.212Z,1007.6
2018-12-17T07:38:29.215Z,1007.6
2018-12-17T07:39:32.948Z,1007.6
2018-12-17T07:40:35.220Z,1007.7
2018-12-17T07:41:36.708Z,1007.7
2018-12-17T07:42:38.769Z,1007.7
2018-12-17T07:43:40.152Z,1007.7
2018-12-17T07:44:43.148Z,1007.7
2018-12-17T07:45:43.667Z,1007.7
2018-12-17T07:46:45.084Z,1007.7
2018-12-17T07:47:46.454Z,1007.8
2018-12-17T07:48:47.872Z,1007.8
2018-12-17T07:49:49.269Z,1007.9
2018-12-17T07:50:51.655Z,1007.9
2018-12-17T07:51:53.082Z,1007.9
2018-12-17T07:52:54.476Z,1007.9
2018-12-17T07:53:55.889Z,1007.9
2018-12-17T07:54:57.284Z,1007.9
2018-12-17T07:55:59.259Z,1008.0
2018-12-17T07:57:00.656Z,1008.0
2018-12-17T07:58:02.040Z,1008.0
2018-12-17T07:59:03.545Z,1008.0
2018-12-17T08:00:04.975Z,1008.1
2018-12-17T08:01:06.380Z,1008.1
2018-12-17T08:02:07.795Z,1008.1
2018-12-17T08:03:09.714Z,1008.1
2018-12-17T08:04:11.081Z,1008.1
2018-12-17T08:05:12.471Z,1008.1
2018-12-17T08:06:13.834Z,1008.1
2018-12-17T08:07:15.224Z,1008.1
2018-12-17T08:08:16.663Z,1008.1
2018-12-17T08:09:19.529Z,1008.1
2018-12-17T08:10:21.840Z,1008.2
2018-12-17T08:11:23.338Z,1008.2
2018-12-17T08:12:26.398Z,1008.1
2018-12-17T08:13:27.891Z,1008.2
2018-12-17T08:14:30.151Z,1008.2
2018-12-17T08:15:30.729Z,1008.2
2018-12-17T08:16:32.219Z,1008.1
2018-12-17T08:17:34.588Z,1008.2
2018-12-17T08:18:36.011Z,1008.2
2018-12-17T08:19:37.420Z,1008.2
2018-12-17T08:20:40.277Z,1008.3
2018-12-17T08:21:43.159Z,1008.2
2018-12-17T08:22:43.796Z,1008.3
2018-12-17T08:23:45.226Z,1008.3
2018-12-17T08:24:46.664Z,1008.3
2018-12-17T08:25:48.103Z,1008.3
2018-12-17T08:26:49.528Z,1008.3
2018-12-17T08:27:51.000Z,1008.4
2018-12-17T08:28:52.943Z,1008.4
2018-12-17T08:29:54.388Z,1008.5
2018-12-17T08:30:55.779Z,1008.5
2018-12-17T08:32:02.329Z,1008.5
2018-12-17T08:33:04.408Z,1008.5
2018-12-17T08:34:07.010Z,1008.5
2018-12-17T08:35:09.037Z,1008.5
2018-12-17T08:36:10.449Z,1008.5
2018-12-17T08:37:13.614Z,1008.6
2018-12-17T08:38:15.802Z,1008.6
2018-12-17T08:39:18.546Z,1008.6
2018-12-17T08:40:19.932Z,1008.6
2018-12-17T08:41:22.168Z,1008.6
2018-12-17T08:42:23.615Z,1008.7
2018-12-17T08:43:25.770Z,1008.7
2018-12-17T08:44:27.139Z,1008.7
2018-12-17T08:45:30.439Z,1008.8
2018-12-17T08:46:30.855Z,1008.8
2018-12-17T08:47:33.130Z,1008.8
2018-12-17T08:48:34.522Z,1008.8
2018-12-17T08:49:35.956Z,1008.8
2018-12-17T08:50:41.162Z,1008.8
2018-12-17T08:51:41.745Z,1008.8
2018-12-17T08:52:43.126Z,1008.8
2018-12-17T08:53:45.375Z,1008.8
2018-12-17T08:54:46.941Z,1008.8
2018-12-17T08:55:50.117Z,1008.8
2018-12-17T08:56:51.526Z,1008.8
2018-12-17T08:57:53.035Z,1008.8
2018-12-17T08:58:54.470Z,1008.8
2018-12-17T08:59:55.946Z,1008.7
2018-12-17T09:00:58.160Z,1008.8
2018-12-17T09:01:59.546Z,1008.8
2018-12-17T09:03:01.002Z,1008.8
2018-12-17T09:04:02.513Z,1008.7
2018-12-17T09:05:04.660Z,1008.7
2018-12-17T09:06:06.740Z,1008.7
2018-12-17T09:07:08.208Z,1008.7
2018-12-17T09:08:09.625Z,1008.7
2018-12-17T09:09:11.121Z,1008.7
2018-12-17T09:10:14.310Z,1008.7
2018-12-17T09:11:16.571Z,1008.8
2018-12-17T09:12:18.383Z,1008.8
2018-12-17T09:13:19.890Z,1008.8
2018-12-17T09:14:21.338Z,1008.8
2018-12-17T09:15:22.744Z,1008.8
2018-12-17T09:16:24.105Z,1008.8
2018-12-17T09:17:26.066Z,1008.8
2018-12-17T09:18:27.541Z,1008.9
2018-12-17T09:19:29.026Z,1008.9
2018-12-17T09:20:30.441Z,1008.9
2018-12-17T09:21:32.430Z,1009.0
2018-12-17T09:22:33.815Z,1009.0
2018-12-17T09:23:37.250Z,1009.0
2018-12-17T09:24:41.871Z,1009.0
2018-12-17T09:25:44.587Z,1009.0
2018-12-17T09:26:45.982Z,1009.0
2018-12-17T09:27:48.041Z,1009.0
2018-12-17T09:28:49.491Z,1009.0
2018-12-17T09:29:50.992Z,1009.1
2018-12-17T09:30:53.248Z,1009.1
2018-12-17T09:31:54.688Z,1009.1
2018-12-17T09:32:57.037Z,1009.1
2018-12-17T09:33:58.907Z,1009.2
2018-12-17T09:35:00.426Z,1009.2
2018-12-17T09:36:01.881Z,1009.2
2018-12-17T09:37:03.322Z,1009.2
2018-12-17T09:38:07.592Z,1009.2
2018-12-17T09:39:10.652Z,1009.2
2018-12-17T09:40:12.580Z,1009.2
2018-12-17T09:41:15.431Z,1009.3
2018-12-17T09:42:16.793Z,1009.2
2018-12-17T09:43:18.935Z,1009.3
2018-12-17T09:44:20.480Z,1009.2
2018-12-17T09:45:23.461Z,1009.3
2018-12-17T09:46:25.043Z,1009.3
2018-12-17T09:47:26.450Z,1009.3
2018-12-17T09:48:27.862Z,1009.3
2018-12-17T09:49:29.288Z,1009.3
2018-12-17T09:50:33.916Z,1009.3
2018-12-17T09:51:38.194Z,1009.3
2018-12-17T09:52:39.737Z,1009.4
2018-12-17T09:53:43.010Z,1009.4
2018-12-17T09:54:44.528Z,1009.3
2018-12-17T09:55:46.521Z,1009.3
2018-12-17T09:56:47.891Z,1009.3
2018-12-17T09:57:50.025Z,1009.3
2018-12-17T09:58:52.228Z,1009.4
2018-12-17T09:59:53.617Z,1009.4
2018-12-17T10:00:55.076Z,1009.3
2018-12-17T10:01:56.502Z,1009.4
2018-12-17T10:02:57.885Z,1009.4
2018-12-17T10:03:59.267Z,1009.4
2018-12-17T10:05:00.656Z,1009.3
2018-12-17T10:06:03.387Z,1009.4
2018-12-17T10:07:04.779Z,1009.4
2018-12-17T10:08:06.172Z,1009.3
2018-12-17T10:09:07.598Z,1009.4
2018-12-17T10:10:08.987Z,1009.4
2018-12-17T10:11:11.268Z,1009.4
2018-12-17T10:12:14.206Z,1009.4
2018-12-17T10:13:16.588Z,1009.4
2018-12-17T10:14:18.784Z,1009.4
2018-12-17T10:15:23.236Z,1009.4
2018-12-17T10:16:24.668Z,1009.4
2018-12-17T10:17:26.062Z,1009.4
2018-12-17T10:18:27.427Z,1009.4
2018-12-17T10:19:28.798Z,1009.4
2018-12-17T10:20:30.170Z,1009.4
2018-12-17T10:21:31.651Z,1009.4
2018-12-17T10:22:33.882Z,1009.4
2018-12-17T10:23:35.833Z,1009.4
2018-12-17T10:24:37.247Z,1009.4
2018-12-17T10:25:39.363Z,1009.3
2018-12-17T10:26:42.003Z,1009.4
2018-12-17T10:27:43.382Z,1009.4
2018-12-17T10:28:44.769Z,1009.4
2018-12-17T10:29:46.161Z,1009.4
2018-12-17T10:30:49.679Z,1009.4
2018-12-17T10:31:50.076Z,1009.4
2018-12-17T10:32:52.285Z,1009.4
2018-12-17T10:33:55.057Z,1009.4
2018-12-17T10:34:56.406Z,1009.4
2018-12-17T10:35:58.329Z,1009.4
2018-12-17T10:36:59.688Z,1009.5
2018-12-17T10:38:01.986Z,1009.4
2018-12-17T10:39:04.182Z,1009.4
2018-12-17T10:40:04.658Z,1009.4
2018-12-17T10:41:06.853Z,1009.4
2018-12-17T10:42:08.219Z,1009.4
2018-12-17T10:43:09.568Z,1009.4
2018-12-17T10:44:10.939Z,1009.4
2018-12-17T10:45:12.302Z,1009.4
2018-12-17T10:46:13.646Z,1009.4
2018-12-17T10:47:15.004Z,1009.4
2018-12-17T10:48:16.360Z,1009.4
2018-12-17T10:49:17.729Z,1009.4
2018-12-17T10:50:19.081Z,1009.4
2018-12-17T10:51:21.757Z,1009.3
2018-12-17T10:52:24.066Z,1009.4
2018-12-17T10:53:25.414Z,1009.4
2018-12-17T10:54:26.764Z,1009.4
2018-12-17T10:55:30.371Z,1009.4
2018-12-17T10:56:31.747Z,1009.4
2018-12-17T10:57:33.113Z,1009.5
2018-12-17T10:58:35.242Z,1009.4
2018-12-17T10:59:36.603Z,1009.4
2018-12-17T11:00:39.504Z,1009.4
2018-12-17T11:01:39.877Z,1009.4
2018-12-17T11:02:41.797Z,1009.4
2018-12-17T11:03:43.148Z,1009.4
2018-12-17T11:04:45.053Z,1009.4
2018-12-17T11:05:47.242Z,1009.3
2018-12-17T11:06:48.623Z,1009.4
2018-12-17T11:07:50.571Z,1009.4
2018-12-17T11:08:53.518Z,1009.3
2018-12-17T11:09:54.878Z,1009.3
2018-12-17T11:10:57.786Z,1009.3
2018-12-17T11:12:02.043Z,1009.4
2018-12-17T11:13:04.577Z,1009.4
2018-12-17T11:14:07.488Z,1009.4
2018-12-17T11:15:09.710Z,1009.4
2018-12-17T11:16:12.405Z,1009.4
2018-12-17T11:17:13.754Z,1009.4
2018-12-17T11:18:15.107Z,1009.4
2018-12-17T11:19:16.463Z,1009.3
2018-12-17T11:20:19.372Z,1009.4
2018-12-17T11:21:20.807Z,1009.4
2018-12-17T11:22:22.811Z,1009.4
2018-12-17T11:23:26.375Z,1009.4
2018-12-17T11:24:28.786Z,1009.4
2018-12-17T11:25:38.860Z,1009.4
2018-12-17T11:26:41.029Z,1009.4
2018-12-17T11:27:42.394Z,1009.4
2018-12-17T11:28:45.249Z,1009.4
2018-12-17T11:29:46.593Z,1009.4
2018-12-17T11:30:48.574Z,1009.4
2018-12-17T11:31:49.925Z,1009.4
2018-12-17T11:32:51.967Z,1009.4
2018-12-17T11:33:53.319Z,1009.4
2018-12-17T11:34:54.683Z,1009.4
2018-12-17T11:35:56.717Z,1009.4
2018-12-17T11:36:58.061Z,1009.4
2018-12-17T11:38:00.117Z,1009.3
2018-12-17T11:39:01.473Z,1009.3
2018-12-17T11:40:02.828Z,1009.3
2018-12-17T11:41:04.696Z,1009.3
2018-12-17T11:42:05.528Z,1009.4
2018-12-17T11:43:06.884Z,1009.4
2018-12-17T11:44:08.264Z,1009.4
2018-12-17T11:45:10.197Z,1009.4
2018-12-17T11:46:11.758Z,1009.4
2018-12-17T11:47:14.052Z,1009.4
2018-12-17T11:48:15.410Z,1009.5
2018-12-17T11:49:16.770Z,1009.5
2018-12-17T11:50:18.137Z,1009.5
2018-12-17T11:51:20.892Z,1009.5
2018-12-17T11:52:23.032Z,1009.5
2018-12-17T11:53:24.382Z,1009.5
2018-12-17T11:54:26.669Z,1009.5
2018-12-17T11:55:28.033Z,1009.5
2018-12-17T11:56:30.020Z,1009.5
2018-12-17T11:57:31.379Z,1009.5
2018-12-17T11:58:32.732Z,1009.4
2018-12-17T11:59:34.084Z,1009.5
2018-12-17T12:00:35.446Z,1009.4
2018-12-17T12:01:36.935Z,1009.4
2018-12-17T12:02:38.219Z,1009.4
2018-12-17T12:03:39.573Z,1009.4
2018-12-17T12:04:41.482Z,1009.4
2018-12-17T12:05:42.849Z,1009.4
2018-12-17T12:06:47.157Z,1009.4
2018-12-17T12:07:48.531Z,1009.4
2018-12-17T12:08:52.844Z,1009.4
2018-12-17T12:09:55.097Z,1009.4
2018-12-17T12:10:56.464Z,1009.4
2018-12-17T12:11:58.656Z,1009.4
2018-12-17T12:13:00.072Z,1009.4
2018-12-17T12:14:01.442Z,1009.4
2018-12-17T12:15:02.895Z,1009.4
2018-12-17T12:16:04.253Z,1009.4
2018-12-17T12:17:06.268Z,1009.4
2018-12-17T12:18:08.468Z,1009.4
2018-12-17T12:19:10.783Z,1009.4
2018-12-17T12:20:12.140Z,1009.4
2018-12-17T12:21:14.771Z,1009.4
2018-12-17T12:22:17.003Z,1009.4
2018-12-17T12:23:18.379Z,1009.4
2018-12-17T12:24:19.748Z,1009.5
2018-12-17T12:25:22.229Z,1009.5
2018-12-17T12:26:23.593Z,1009.5
2018-12-17T12:27:27.708Z,1009.5
2018-12-17T12:28:29.897Z,1009.5
2018-12-17T12:29:31.257Z,1009.5
2018-12-17T12:30:33.290Z,1009.6
2018-12-17T12:31:34.683Z,1009.5
2018-12-17T12:32:36.058Z,1009.6
2018-12-17T12:33:38.354Z,1009.6
2018-12-17T12:34:39.739Z,1009.6
2018-12-17T12:35:41.080Z,1009.6
2018-12-17T12:36:42.430Z,1009.6
2018-12-17T12:37:43.784Z,1009.7
2018-12-17T12:38:45.142Z,1009.7
2018-12-17T12:39:59.288Z,1009.7
2018-12-17T12:41:02.948Z,1009.7
2018-12-17T12:42:05.199Z,1009.7
2018-12-17T12:43:08.178Z,1009.8
2018-12-17T12:44:10.279Z,1009.8
2018-12-17T12:45:11.697Z,1009.8
2018-12-17T12:46:13.239Z,1009.8
2018-12-17T12:47:14.566Z,1009.8
2018-12-17T12:48:15.925Z,1009.8
2018-12-17T12:49:17.279Z,1009.8
2018-12-17T12:50:18.665Z,1009.8
2018-12-17T12:51:20.029Z,1009.8
2018-12-17T12:52:22.240Z,1009.8